This is the latest recevied weather packets stored in our database for station/object SP1BMW-13. If no packets are shown the sender has not sent any weather packets the latest 10 day(s).
| Time | Temp. | Humidity | Pressure | Rain* | Wind** | Luminosity | Snow |
|---|---|---|---|---|---|---|---|
| 1787916138 | 25° C | 49% | 1009 hPa | 0 mm | 1.79 m/s, 36° | 585 W/m² | - |
| 1787916078 | 25° C | 50% | 1008.9 hPa | 0 mm | 1.79 m/s, 45° | 549 W/m² | - |
| 1787916018 | 25° C | 50% | 1008.9 hPa | 0 mm | 2.24 m/s, 142° | 668 W/m² | - |
| 1787915958 | 25° C | 51% | 1009 hPa | 0 mm | 1.34 m/s, 8° | 598 W/m² | - |
| 1787915898 | 25° C | 52% | 1009 hPa | 0 mm | 1.34 m/s, 62° | 442 W/m² | - |
| 1787915838 | 25° C | 50% | 1009 hPa | 0 mm | 1.79 m/s, 95° | 409 W/m² | - |
| 1787915778 | 24.44° C | 51% | 1009.1 hPa | 0 mm | 0.89 m/s, 51° | 378 W/m² | - |
| 1787915718 | 24.44° C | 51% | 1009 hPa | 0 mm | 1.34 m/s, 77° | 482 W/m² | - |
| 1787915658 | 24.44° C | 51% | 1009.1 hPa | 0 mm | 0.45 m/s, 32° | 470 W/m² | - |
| 1787915598 | 24.44° C | 51% | 1009.1 hPa | 0 mm | 1.34 m/s, 44° | 428 W/m² | - |
| 1787915538 | 24.44° C | 51% | 1009.2 hPa | 0 mm | 0.89 m/s, 11° | 483 W/m² | - |
| 1787915478 | 24.44° C | 53% | 1009 hPa | 0 mm | 0.45 m/s, 2° | 520 W/m² | - |
| 1787915418 | 24.44° C | 52% | 1009.1 hPa | 0 mm | 1.79 m/s, 57° | 520 W/m² | - |
| 1787915358 | 24.44° C | 51% | 1009.1 hPa | 0 mm | 1.34 m/s, 28° | 501 W/m² | - |
| 1787915298 | 24.44° C | 52% | 1009 hPa | 0 mm | 1.79 m/s, 32° | 678 W/m² | - |
| 1787915238 | 24.44° C | 52% | 1009.2 hPa | 0 mm | 0.45 m/s, 12° | 408 W/m² | - |
| 1787915178 | 24.44° C | 51% | 1009 hPa | 0 mm | 3.58 m/s, 73° | 345 W/m² | - |
| 1787915118 | 23.89° C | 53% | 1009.1 hPa | 0 mm | 0.89 m/s, 44° | 331 W/m² | - |
| 1787915059 | 23.89° C | 52% | 1009.1 hPa | 0 mm | 0.89 m/s, 20° | 333 W/m² | - |
| 1787914997 | 23.89° C | 52% | 1009.2 hPa | 0 mm | 0.89 m/s, 16° | 356 W/m² | - |
| 1787914938 | 23.33° C | 52% | 1009.1 hPa | 0 mm | 1.79 m/s, 337° | 638 W/m² | - |
| 1787914877 | 23.33° C | 53% | 1009.1 hPa | 0 mm | 0.45 m/s, 54° | 886 W/m² | - |
| 1787914817 | 23.33° C | 53% | 1009.2 hPa | 0 mm | 0.89 m/s, 41° | 723 W/m² | - |
| 1787914757 | 23.33° C | 53% | 1009.2 hPa | 0 mm | 2.24 m/s, 61° | 407 W/m² | - |
| 1787914697 | 23.33° C | 53% | 1009.1 hPa | 0 mm | 1.79 m/s, 10° | 332 W/m² | - |
* Rain latest hour (hover to see other rain measurements)
** Current wind speed in m/s (hover to see current wind gust speed)